Time;durP1;ratioP1;P1;durP2;ratioP2;P2;SDS_P1;SDS_P2;PMS_P1;PMS_P2;Temp;Humidity;BMP_temperature;BMP_pressure;BME280_temperature;BME280_humidity;BME280_pressure;Samples;Min_cycle;Max_cycle;Signal;HPM_P1;HPM_P2
2023/01/09 00:00:23;;;;;;;6.78;1.58;;;;;;;3.23;100.00;98027.75;6194343;23;20097;-94
2023/01/09 00:02:48;;;;;;;5.22;1.08;;;;;;;3.17;100.00;98021.31;6194453;23;20003;-95
2023/01/09 00:05:16;;;;;;;10.43;1.38;;;;;;;3.31;100.00;98047.63;6194974;23;20483;-95
2023/01/09 00:07:41;;;;;;;10.65;1.60;;;;;;;2.92;100.00;98019.53;6193887;23;20057;-94
2023/01/09 00:10:09;;;;;;;12.02;1.27;;;;;;;3.02;100.00;98041.88;6194316;23;20010;-93
2023/01/09 00:12:34;;;;;;;10.93;1.63;;;;;;;3.20;100.00;98061.91;6194309;23;20013;-95
2023/01/09 00:15:00;;;;;;;10.32;1.48;;;;;;;3.19;100.00;98070.47;6193389;23;20002;-94
2023/01/09 00:17:26;;;;;;;9.27;1.23;;;;;;;3.10;100.00;98071.06;6194008;23;20013;-96
2023/01/09 00:19:51;;;;;;;10.63;1.85;;;;;;;2.99;100.00;98048.00;6193865;23;20017;-95
2023/01/09 00:22:17;;;;;;;9.60;1.75;;;;;;;3.06;100.00;98076.47;6195700;23;20007;-94
2023/01/09 00:24:42;;;;;;;12.02;1.60;;;;;;;3.07;100.00;98085.72;6196261;23;20359;-95
2023/01/09 00:27:08;;;;;;;10.52;1.67;;;;;;;3.26;100.00;98065.78;6195982;23;20046;-95
2023/01/09 00:29:34;;;;;;;11.52;3.50;;;;;;;3.21;100.00;98075.44;6195712;23;20081;-94
2023/01/09 00:31:59;;;;;;;25.33;3.20;;;;;;;3.08;100.00;98085.63;6195493;23;20013;-96
2023/01/09 00:34:25;;;;;;;9.55;2.95;;;;;;;3.19;100.00;98084.94;6196067;23;20072;-93
2023/01/09 00:36:55;;;;;;;11.73;2.47;;;;;;;3.07;100.00;98090.81;6195847;23;20007;-96
2023/01/09 00:39:23;;;;;;;13.13;2.60;;;;;;;3.15;100.00;98093.72;6195261;23;20003;-95
2023/01/09 00:41:53;;;;;;;20.35;3.38;;;;;;;3.25;100.00;98115.13;6195876;23;20085;-94
2023/01/09 00:44:27;;;;;;;13.73;3.22;;;;;;;3.24;100.00;98112.69;6195720;23;20085;-94
2023/01/09 00:46:58;;;;;;;25.70;4.63;;;;;;;3.17;100.00;98110.53;6195069;23;20014;-94
2023/01/09 00:49:25;;;;;;;15.02;4.07;;;;;;;3.24;100.00;98115.22;6195511;23;20136;-95
2023/01/09 00:51:53;;;;;;;21.73;4.15;;;;;;;3.31;100.00;98117.28;6196283;23;20006;-95
2023/01/09 00:54:19;;;;;;;14.98;3.08;;;;;;;3.33;100.00;98128.19;6195923;23;20003;-95
2023/01/09 00:56:45;;;;;;;16.73;2.67;;;;;;;3.19;100.00;98111.25;6195286;23;20008;-94
2023/01/09 00:59:11;;;;;;;18.42;3.47;;;;;;;3.56;100.00;98130.97;6195268;23;20066;-95
2023/01/09 01:01:36;;;;;;;17.27;3.17;;;;;;;3.53;100.00;98138.81;6195122;23;20010;-95
2023/01/09 01:07:37;;;;;;;23.15;3.13;;;;;;;3.30;100.00;98132.69;6195627;23;20085;-95
2023/01/09 01:09:32;;;;;;;10.35;1.77;;;;;;;3.28;100.00;98130.22;6094302;23;20332;-95
2023/01/09 01:11:57;;;;;;;21.08;2.97;;;;;;;3.54;100.00;98148.13;6195219;23;20089;-95
2023/01/09 01:14:23;;;;;;;12.40;2.35;;;;;;;3.57;100.00;98146.19;6196085;23;20049;-95
2023/01/09 01:16:49;;;;;;;6.60;2.28;;;;;;;3.39;100.00;98138.00;6195107;23;20326;-95
2023/01/09 01:19:14;;;;;;;15.10;1.95;;;;;;;3.47;100.00;98132.41;6195326;23;20052;-94
2023/01/09 01:21:40;;;;;;;20.55;2.90;;;;;;;3.62;100.00;98148.44;6195502;23;20017;-94
2023/01/09 01:24:05;;;;;;;20.20;3.30;;;;;;;3.65;100.00;98148.22;6195220;23;20014;-95
2023/01/09 01:26:31;;;;;;;15.27;2.60;;;;;;;3.64;100.00;98161.91;6195836;23;20071;-95
2023/01/09 01:28:58;;;;;;;14.18;2.40;;;;;;;3.67;100.00;98136.19;6195541;23;20007;-95
2023/01/09 01:31:24;;;;;;;22.45;3.83;;;;;;;4.05;100.00;98145.59;6195440;23;20010;-95
2023/01/09 01:33:49;;;;;;;20.17;2.65;;;;;;;4.36;100.00;98174.13;6195222;23;20029;-95
2023/01/09 01:36:16;;;;;;;16.90;2.42;;;;;;;4.34;100.00;98161.47;6195056;23;20236;-95
2023/01/09 01:38:42;;;;;;;16.70;2.65;;;;;;;4.41;100.00;98166.97;6195440;23;20357;-95
2023/01/09 01:41:08;;;;;;;24.10;3.30;;;;;;;4.47;100.00;98172.47;6194659;23;20010;-95
2023/01/09 01:43:56;;;;;;;20.95;2.67;;;;;;;4.76;100.00;98186.72;6195218;23;20094;-95
2023/01/09 01:46:21;;;;;;;28.17;3.17;;;;;;;4.73;100.00;98192.88;6195060;23;20452;-95
2023/01/09 01:48:52;;;;;;;20.25;3.08;;;;;;;4.67;100.00;98186.41;6195916;23;20007;-94
2023/01/09 01:51:20;;;;;;;25.58;2.80;;;;;;;4.86;100.00;98188.50;6197404;23;20015;-95
2023/01/09 01:53:53;;;;;;;9.75;2.10;;;;;;;4.85;100.00;98192.00;6197275;23;20080;-95
2023/01/09 01:56:24;;;;;;;18.02;2.55;;;;;;;5.03;100.00;98202.66;6197232;23;20003;-94
2023/01/09 01:58:55;;;;;;;17.05;3.08;;;;;;;5.08;100.00;98218.50;6196968;23;20007;-94
2023/01/09 02:01:23;;;;;;;15.23;2.88;;;;;;;5.04;100.00;98186.38;6201748;23;20056;-94
2023/01/09 02:03:51;;;;;;;15.63;2.80;;;;;;;4.86;100.00;98195.38;6201921;23;20030;-94
2023/01/09 02:06:17;;;;;;;19.10;3.13;;;;;;;4.78;100.00;98210.41;6200578;23;20451;-94
2023/01/09 02:08:43;;;;;;;19.00;2.25;;;;;;;4.52;100.00;98207.91;6199209;23;20042;-94
2023/01/09 02:11:11;;;;;;;34.08;5.30;;;;;;;4.44;100.00;98208.44;6218837;22;20312;-93
2023/01/09 02:13:39;;;;;;;22.10;3.60;;;;;;;4.46;100.00;98209.16;6222297;22;20018;-91
2023/01/09 02:16:23;;;;;;;22.45;2.78;;;;;;;4.75;100.00;98246.41;6221742;22;20018;-94
2023/01/09 02:18:55;;;;;;;18.83;4.57;;;;;;;4.46;100.00;98226.19;6221085;22;20009;-93
2023/01/09 02:21:30;;;;;;;19.60;2.78;;;;;;;4.53;100.00;98258.06;6221384;22;20010;-93
2023/01/09 02:24:27;;;;;;;25.10;2.75;;;;;;;4.63;100.00;98243.78;6221722;22;20037;-93
2023/01/09 02:27:21;;;;;;;20.23;2.97;;;;;;;4.54;100.00;98264.84;6220920;23;20070;-94
2023/01/09 02:30:05;;;;;;;14.80;2.38;;;;;;;4.38;100.00;98265.03;6221322;23;20011;-92
2023/01/09 02:33:09;;;;;;;16.45;2.47;;;;;;;4.57;100.00;98271.47;6215170;23;20015;-93
2023/01/09 02:35:42;;;;;;;27.70;2.92;;;;;;;4.70;100.00;98285.84;6217861;22;20058;-92
2023/01/09 02:38:46;;;;;;;23.77;3.30;;;;;;;4.70;100.00;98265.41;6221341;22;20021;-91
2023/01/09 02:41:59;;;;;;;29.13;2.63;;;;;;;4.65;100.00;98272.56;6220542;22;20044;-91
2023/01/09 02:44:28;;;;;;;27.27;3.78;;;;;;;4.43;100.00;98264.72;6153252;23;20026;-94
2023/01/09 02:47:07;;;;;;;19.13;2.47;;;;;;;4.40;100.00;98250.44;6221015;22;20026;-94
2023/01/09 02:49:37;;;;;;;20.95;2.83;;;;;;;4.43;100.00;98278.31;6221096;22;19995;-92
2023/01/09 02:52:40;;;;;;;12.88;2.20;;;;;;;4.42;100.00;98303.97;6220114;22;20002;-92
2023/01/09 02:55:41;;;;;;;20.60;3.22;;;;;;;4.24;100.00;98290.66;6119166;22;19995;-93
2023/01/09 02:58:10;;;;;;;25.83;4.50;;;;;;;4.43;100.00;98319.19;6210292;22;20010;-92
2023/01/09 03:01:03;;;;;;;11.82;2.38;;;;;;;4.41;100.00;98322.75;6220037;23;20303;-93
2023/01/09 03:03:44;;;;;;;12.70;1.80;;;;;;;4.23;100.00;98332.44;6219574;23;19997;-92
2023/01/09 03:06:37;;;;;;;16.88;1.85;;;;;;;4.26;100.00;98312.63;6219550;22;20018;-93
2023/01/09 03:09:11;;;;;;;12.63;2.10;;;;;;;4.27;100.00;98324.50;6203230;23;19990;-94
2023/01/09 03:11:46;;;;;;;29.08;5.32;;;;;;;4.22;100.00;98316.31;6220206;22;20026;-92
2023/01/09 03:14:16;;;;;;;22.25;2.53;;;;;;;4.14;100.00;98328.75;6219410;23;20014;-91
2023/01/09 03:16:45;;;;;;;10.48;2.10;;;;;;;4.05;100.00;98329.38;6208292;23;20006;-93
2023/01/09 03:19:15;;;;;;;18.85;2.03;;;;;;;3.94;100.00;98316.47;6195533;23;20002;-95
2023/01/09 03:21:42;;;;;;;20.08;2.60;;;;;;;3.95;100.00;98330.84;6094121;23;20011;-96
2023/01/09 03:24:08;;;;;;;17.13;2.85;;;;;;;3.95;100.00;98346.16;6194985;23;20136;-95
2023/01/09 03:26:34;;;;;;;22.35;3.72;;;;;;;4.14;100.00;98359.38;6195739;23;20006;-95
2023/01/09 03:28:59;;;;;;;13.75;4.18;;;;;;;4.02;100.00;98360.19;6195656;23;20006;-95
2023/01/09 03:31:25;;;;;;;25.13;2.22;;;;;;;4.13;100.00;98370.53;6200763;23;20006;-95
2023/01/09 03:33:51;;;;;;;22.90;3.78;;;;;;;3.90;100.00;98358.41;6193160;23;20341;-94
2023/01/09 03:36:19;;;;;;;19.60;2.03;;;;;;;4.11;100.00;98392.78;6192570;23;20150;-95
2023/01/09 03:38:44;;;;;;;16.83;2.20;;;;;;;3.99;100.00;98365.47;6191032;23;20010;-96
2023/01/09 03:41:10;;;;;;;18.58;2.35;;;;;;;4.01;100.00;98377.22;6191501;23;20021;-94
2023/01/09 03:43:36;;;;;;;16.13;3.80;;;;;;;3.98;100.00;98358.75;6192409;23;20496;-95
2023/01/09 03:46:02;;;;;;;18.30;2.03;;;;;;;4.01;100.00;98386.63;6192236;23;20010;-94
2023/01/09 03:48:28;;;;;;;18.88;2.42;;;;;;;3.99;100.00;98388.44;6192836;23;20033;-95
2023/01/09 03:50:54;;;;;;;16.48;2.03;;;;;;;3.74;100.00;98367.03;6192819;23;20018;-94
2023/01/09 03:53:22;;;;;;;18.00;2.40;;;;;;;3.80;100.00;98391.34;6192345;23;20006;-94
2023/01/09 03:55:50;;;;;;;19.88;3.45;;;;;;;4.05;100.00;98411.06;6192242;23;19998;-93
2023/01/09 03:58:17;;;;;;;21.50;3.50;;;;;;;3.71;100.00;98387.63;6192506;23;20002;-94
2023/01/09 04:00:44;;;;;;;16.83;2.63;;;;;;;3.88;100.00;98401.91;6192825;23;20010;-93
2023/01/09 04:03:11;;;;;;;10.60;4.03;;;;;;;3.84;100.00;98418.31;6192782;23;20011;-93
2023/01/09 04:05:37;;;;;;;23.23;2.63;;;;;;;3.77;100.00;98394.91;6192527;23;20003;-94
2023/01/09 04:08:03;;;;;;;22.05;3.17;;;;;;;3.94;100.00;98423.66;6191922;23;20007;-92
2023/01/09 04:10:28;;;;;;;20.00;2.63;;;;;;;3.81;100.00;98414.22;6192970;23;20006;-96
2023/01/09 04:12:54;;;;;;;14.60;2.83;;;;;;;3.57;100.00;98413.19;6192857;23;19999;-95
2023/01/09 04:15:20;;;;;;;16.25;2.45;;;;;;;3.68;100.00;98422.72;6192914;23;20002;-95
2023/01/09 04:17:45;;;;;;;20.13;2.35;;;;;;;3.74;100.00;98418.06;6192188;23;20013;-94
2023/01/09 04:20:11;;;;;;;22.48;2.53;;;;;;;3.67;100.00;98424.44;6192879;23;20341;-94
2023/01/09 04:22:37;;;;;;;20.05;2.55;;;;;;;3.74;100.00;98428.25;6192880;23;20002;-94
2023/01/09 04:25:03;;;;;;;17.73;2.67;;;;;;;3.69;100.00;98434.56;6192181;23;20014;-92
2023/01/09 04:27:29;;;;;;;17.83;2.40;;;;;;;3.61;100.00;98424.84;6192512;23;20003;-94
2023/01/09 04:29:54;;;;;;;16.10;2.15;;;;;;;3.61;100.00;98435.06;6192354;23;20021;-95
2023/01/09 04:32:20;;;;;;;14.40;3.22;;;;;;;3.72;100.00;98445.41;6191841;23;20376;-94
2023/01/09 04:34:45;;;;;;;15.15;1.67;;;;;;;3.70;100.00;98457.41;6192690;23;20003;-95
2023/01/09 04:37:11;;;;;;;26.52;5.15;;;;;;;3.64;100.00;98438.22;6192633;23;20010;-94
2023/01/09 04:39:36;;;;;;;23.00;2.88;;;;;;;3.49;100.00;98423.00;6192002;23;20033;-95
2023/01/09 04:42:02;;;;;;;27.73;3.05;;;;;;;3.73;100.00;98453.88;6193365;23;20340;-95
2023/01/09 04:44:28;;;;;;;32.83;3.88;;;;;;;3.54;100.00;98460.09;6192020;23;20433;-94
2023/01/09 04:46:56;;;;;;;17.65;3.58;;;;;;;3.64;100.00;98465.47;6192551;23;20014;-95
2023/01/09 04:49:22;;;;;;;18.52;2.90;;;;;;;3.42;100.00;98453.19;6192309;23;20006;-94
2023/01/09 04:51:48;;;;;;;17.83;2.80;;;;;;;3.37;100.00;98470.50;6192796;23;20053;-94
2023/01/09 04:54:13;;;;;;;16.55;2.70;;;;;;;3.17;100.00;98446.16;6192608;23;20006;-94
2023/01/09 04:56:39;;;;;;;28.70;4.25;;;;;;;3.19;100.00;98439.25;6191845;23;20010;-94
2023/01/09 04:59:06;;;;;;;19.20;2.58;;;;;;;3.47;100.00;98468.22;6192424;23;20011;-95
2023/01/09 05:01:32;;;;;;;20.85;2.85;;;;;;;3.29;100.00;98468.41;6192682;23;20022;-94
2023/01/09 05:03:57;;;;;;;24.33;3.92;;;;;;;3.14;100.00;98434.41;6192667;23;20011;-94
2023/01/09 05:06:23;;;;;;;13.95;2.13;;;;;;;3.21;100.00;98466.28;6191965;23;20072;-95
2023/01/09 05:08:49;;;;;;;26.05;2.83;;;;;;;3.40;100.00;98457.56;6193591;23;20022;-94
2023/01/09 05:11:14;;;;;;;15.43;2.17;;;;;;;3.37;100.00;98458.56;6194464;23;20010;-94
2023/01/09 05:13:40;;;;;;;30.02;2.88;;;;;;;3.31;100.00;98443.63;6193921;23;20429;-94
2023/01/09 05:16:06;;;;;;;23.70;3.08;;;;;;;3.35;100.00;98462.94;6194366;23;20006;-95
2023/01/09 05:18:32;;;;;;;25.25;3.28;;;;;;;3.36;100.00;98474.75;6193758;23;20007;-95
2023/01/09 05:20:57;;;;;;;18.75;2.78;;;;;;;3.36;100.00;98459.44;6193699;23;20017;-94
2023/01/09 05:23:22;;;;;;;20.13;3.67;;;;;;;3.13;100.00;98458.28;6194101;23;20071;-95
2023/01/09 05:25:48;;;;;;;30.15;3.40;;;;;;;3.27;100.00;98470.22;6193838;23;20009;-96
2023/01/09 05:28:14;;;;;;;27.13;2.92;;;;;;;3.35;100.00;98483.31;6193473;23;20017;-93
2023/01/09 05:30:39;;;;;;;22.50;2.92;;;;;;;3.49;100.00;98479.97;6194621;23;20085;-94
2023/01/09 05:33:05;;;;;;;18.73;2.65;;;;;;;3.46;100.00;98494.63;6193993;23;20011;-94
2023/01/09 05:35:30;;;;;;;23.42;3.85;;;;;;;3.37;100.00;98494.25;6194057;23;20385;-94
2023/01/09 05:37:56;;;;;;;18.40;2.42;;;;;;;3.38;100.00;98485.69;6193694;23;20436;-95
2023/01/09 05:40:21;;;;;;;30.67;4.38;;;;;;;3.87;100.00;98507.44;6193538;23;20098;-95
2023/01/09 05:42:47;;;;;;;28.73;4.70;;;;;;;3.91;100.00;98487.66;6193579;23;20313;-94
2023/01/09 05:45:12;;;;;;;25.38;3.65;;;;;;;4.16;100.00;98505.63;6193993;23;20003;-95
2023/01/09 05:47:38;;;;;;;22.80;2.63;;;;;;;4.10;100.00;98482.22;6193447;23;20076;-94
2023/01/09 05:50:04;;;;;;;21.48;3.05;;;;;;;3.90;100.00;98475.78;6194029;23;20060;-95
2023/01/09 05:52:30;;;;;;;26.65;3.33;;;;;;;4.07;100.00;98498.53;6193548;23;20503;-94
2023/01/09 05:54:55;;;;;;;13.80;2.08;;;;;;;3.92;100.00;98515.63;6193334;23;20002;-95
2023/01/09 05:57:21;;;;;;;19.05;2.80;;;;;;;3.98;100.00;98491.47;6193653;23;20003;-94
2023/01/09 05:59:46;;;;;;;15.30;3.13;;;;;;;3.94;100.00;98490.00;6193254;23;20017;-94
2023/01/09 06:02:12;;;;;;;16.40;2.67;;;;;;;4.03;100.00;98520.09;6193814;23;20060;-94
2023/01/09 06:04:38;;;;;;;17.95;3.05;;;;;;;3.79;100.00;98507.91;6193428;23;20006;-94
2023/01/09 06:07:04;;;;;;;19.23;2.33;;;;;;;4.04;100.00;98509.75;6193367;23;20009;-95
2023/01/09 06:09:30;;;;;;;13.52;2.80;;;;;;;4.14;100.00;98533.00;6194005;23;20034;-94
2023/01/09 06:11:56;;;;;;;19.23;2.55;;;;;;;4.32;100.00;98540.44;6193626;23;20364;-95
2023/01/09 06:14:21;;;;;;;21.38;1.95;;;;;;;4.23;100.00;98537.53;6192893;23;20056;-94
2023/01/09 06:16:47;;;;;;;24.70;2.63;;;;;;;4.33;100.00;98544.63;6193453;23;20064;-94
2023/01/09 06:19:12;;;;;;;20.08;3.22;;;;;;;4.32;100.00;98555.75;6193542;23;20017;-94
2023/01/09 06:21:38;;;;;;;25.67;2.35;;;;;;;4.39;100.00;98552.75;6092119;23;20033;-94
2023/01/09 06:24:04;;;;;;;19.80;2.40;;;;;;;4.51;100.00;98556.25;6193542;23;20010;-94
2023/01/09 06:26:30;;;;;;;15.43;2.70;;;;;;;4.69;100.00;98554.28;6192846;23;20418;-94
2023/01/09 06:28:55;;;;;;;10.90;1.98;;;;;;;4.46;100.00;98553.16;6193318;23;20085;-94
2023/01/09 06:31:22;;;;;;;15.63;1.98;;;;;;;4.41;100.00;98544.97;6193699;23;20018;-94
2023/01/09 06:33:47;;;;;;;39.85;6.57;;;;;;;4.51;100.00;98561.34;6193135;23;20333;-94
2023/01/09 06:36:13;;;;;;;12.07;2.10;;;;;;;4.66;100.00;98585.97;6192697;23;20011;-94
2023/01/09 06:38:39;;;;;;;12.02;1.88;;;;;;;4.74;100.00;98571.88;6194123;23;20116;-94
2023/01/09 06:41:04;;;;;;;15.40;2.00;;;;;;;4.74;100.00;98570.13;6193267;23;20314;-95
2023/01/09 06:43:30;;;;;;;15.32;1.50;;;;;;;4.92;100.00;98594.50;6194063;23;20011;-96
2023/01/09 06:45:56;;;;;;;12.30;1.30;;;;;;;4.92;100.00;98578.34;6193295;23;20406;-96
2023/01/09 06:48:23;;;;;;;10.20;1.55;;;;;;;4.93;100.00;98592.81;6194218;23;20010;-93
2023/01/09 06:50:52;;;;;;;16.92;2.30;;;;;;;5.01;100.00;98593.13;6194381;23;20015;-96
2023/01/09 06:53:18;;;;;;;13.07;2.72;;;;;;;5.05;100.00;98620.13;6194116;23;20006;-95
2023/01/09 06:55:44;;;;;;;14.38;2.30;;;;;;;4.82;100.00;98592.66;6192957;23;20377;-94
2023/01/09 06:58:10;;;;;;;12.82;1.83;;;;;;;5.03;100.00;98621.97;6193440;23;20101;-96
2023/01/09 07:00:36;;;;;;;15.10;1.90;;;;;;;4.97;100.00;98589.09;6193174;23;20006;-95
2023/01/09 07:03:02;;;;;;;8.98;1.40;;;;;;;5.11;100.00;98611.25;6193321;23;20013;-95
2023/01/09 07:05:27;;;;;;;15.07;2.00;;;;;;;5.06;100.00;98626.88;6193676;23;20022;-95
2023/01/09 07:07:53;;;;;;;11.65;1.33;;;;;;;5.10;100.00;98633.44;6193230;23;20006;-95
2023/01/09 07:10:19;;;;;;;18.13;4.53;;;;;;;4.94;100.00;98623.38;6193137;23;20011;-96
2023/01/09 07:12:44;;;;;;;9.63;1.80;;;;;;;5.04;100.00;98636.38;6193564;23;20026;-95
2023/01/09 07:15:10;;;;;;;6.55;1.50;;;;;;;5.16;100.00;98645.00;6193902;23;20016;-95
2023/01/09 07:17:36;;;;;;;9.23;1.48;;;;;;;5.11;100.00;98647.88;6196572;23;20009;-95
2023/01/09 07:20:01;;;;;;;6.70;1.48;;;;;;;4.93;100.00;98610.69;6194718;23;20006;-93
2023/01/09 07:22:27;;;;;;;17.35;3.17;;;;;;;4.90;100.00;98615.97;6194362;23;20437;-94
2023/01/09 07:24:52;;;;;;;11.43;1.80;;;;;;;5.03;100.00;98644.97;6192403;23;20085;-93
2023/01/09 07:27:38;;;;;;;9.05;1.67;;;;;;;4.82;100.00;98636.09;6192647;23;20034;-96
2023/01/09 07:30:05;;;;;;;9.38;1.50;;;;;;;4.70;100.00;98638.50;6192327;23;20040;-94
2023/01/09 07:32:31;;;;;;;12.48;1.70;;;;;;;4.57;100.00;98629.16;6192362;23;20492;-93
2023/01/09 07:34:57;;;;;;;7.05;1.42;;;;;;;4.58;100.00;98639.25;6191658;23;20006;-94
2023/01/09 07:37:23;;;;;;;14.10;1.55;;;;;;;4.49;100.00;98650.88;6192833;23;20018;-94
2023/01/09 07:39:49;;;;;;;9.07;1.75;;;;;;;4.47;100.00;98657.00;6192885;23;20018;-94
2023/01/09 07:42:18;;;;;;;10.00;1.50;;;;;;;4.47;100.00;98674.88;6194150;23;20011;-96
2023/01/09 07:44:43;;;;;;;13.82;1.38;;;;;;;4.46;100.00;98678.31;6195174;23;20091;-94
2023/01/09 07:47:09;;;;;;;13.75;2.10;;;;;;;4.74;100.00;98700.47;6192269;23;20434;-94
2023/01/09 07:49:34;;;;;;;11.13;1.90;;;;;;;4.80;100.00;98700.09;6193341;23;20006;-95
2023/01/09 07:52:00;;;;;;;14.52;2.22;;;;;;;4.76;100.00;98718.28;6192327;23;20425;-94
2023/01/09 07:54:26;;;;;;;8.27;1.52;;;;;;;4.72;100.00;98722.75;6192326;23;20429;-94
2023/01/09 07:56:51;;;;;;;10.65;1.60;;;;;;;4.49;100.00;98713.94;6192581;23;20086;-94
2023/01/09 07:59:17;;;;;;;9.20;1.85;;;;;;;4.50;100.00;98723.22;6192454;23;20017;-95
2023/01/09 08:01:42;;;;;;;11.35;1.92;;;;;;;4.69;100.00;98718.66;6192659;23;20010;-94
2023/01/09 08:04:08;;;;;;;15.27;2.30;;;;;;;4.82;100.00;98769.00;6192578;23;20011;-94
2023/01/09 08:06:34;;;;;;;7.90;1.35;;;;;;;4.92;100.00;98752.19;6191865;23;20090;-94
2023/01/09 08:08:59;;;;;;;6.55;1.25;;;;;;;4.84;100.00;98767.19;6192527;23;20003;-94
2023/01/09 08:11:25;;;;;;;10.20;1.42;;;;;;;4.83;100.00;98789.38;6190533;23;20006;-94
2023/01/09 08:13:51;;;;;;;12.82;1.45;;;;;;;4.70;100.00;98776.50;6192766;23;20007;-94
2023/01/09 08:16:16;;;;;;;7.57;1.10;;;;;;;4.80;100.00;98791.28;6192401;23;20038;-94
2023/01/09 08:18:42;;;;;;;11.88;1.90;;;;;;;4.85;100.00;98804.59;6091569;23;20003;-94
2023/01/09 08:21:08;;;;;;;7.10;1.20;;;;;;;4.86;100.00;98809.63;6192277;23;20090;-94
2023/01/09 08:23:33;;;;;;;8.57;1.27;;;;;;;4.95;100.00;98821.06;6192644;23;20003;-94
2023/01/09 08:25:59;;;;;;;14.25;3.10;;;;;;;5.05;100.00;98845.16;6192840;23;20011;-95
2023/01/09 08:28:24;;;;;;;11.82;2.53;;;;;;;4.79;100.00;98838.22;6192639;23;20015;-95
2023/01/09 08:30:50;;;;;;;7.03;0.75;;;;;;;4.71;100.00;98867.59;6191948;23;20433;-92
2023/01/09 08:33:15;;;;;;;10.82;1.17;;;;;;;4.63;100.00;98879.16;6192631;23;20007;-94
2023/01/09 08:35:44;;;;;;;5.00;0.88;;;;;;;4.70;100.00;98871.06;6191475;23;20728;-94
2023/01/09 08:38:10;;;;;;;14.93;1.23;;;;;;;4.81;100.00;98870.44;6191875;23;19998;-94
2023/01/09 08:40:36;;;;;;;12.05;2.03;;;;;;;4.72;100.00;98871.78;6192270;23;20013;-94
2023/01/09 08:48:30;;;;;;;3.20;0.60;;;;;;;4.62;100.00;98891.13;6092650;23;20048;-94
2023/01/09 08:50:56;;;;;;;8.07;1.17;;;;;;;4.76;100.00;98918.47;6193363;23;20011;-95
2023/01/09 08:53:21;;;;;;;12.13;1.20;;;;;;;4.76;100.00;98910.78;6092529;23;20452;-94
2023/01/09 08:55:47;;;;;;;9.77;1.27;;;;;;;4.77;100.00;98924.38;6194074;23;20112;-94
2023/01/09 08:58:12;;;;;;;7.85;1.08;;;;;;;4.76;100.00;98926.13;6194338;23;20430;-95
2023/01/09 09:00:38;;;;;;;8.98;1.55;;;;;;;4.57;100.00;98916.13;6194050;23;20007;-94
2023/01/09 09:03:04;;;;;;;6.82;0.95;;;;;;;-143.29;100.00;62188.47;6194132;23;20040;-95
2023/01/09 09:05:30;;;;;;;6.30;1.83;;;;;;;-143.29;100.00;62188.47;6193944;23;20010;-94
2023/01/09 09:07:56;;;;;;;5.22;1.23;;;;;;;-143.29;100.00;62188.47;6193391;23;20010;-94
2023/01/09 09:10:25;;;;;;;8.77;1.27;;;;;;;-143.29;100.00;62188.47;6192439;23;20006;-94
2023/01/09 09:12:54;;;;;;;7.80;1.65;;;;;;;-143.29;100.00;62188.47;6193808;23;20041;-94
2023/01/09 09:15:23;;;;;;;5.13;0.85;;;;;;;-143.29;100.00;62188.47;6193515;23;20006;-93
2023/01/09 09:17:50;;;;;;;6.53;1.42;;;;;;;-143.29;100.00;62188.47;6193759;23;20329;-94
2023/01/09 09:20:16;;;;;;;8.10;0.90;;;;;;;-143.29;100.00;62188.47;6192857;23;20094;-94
2023/01/09 09:22:41;;;;;;;3.38;0.82;;;;;;;-143.29;100.00;62188.47;6193632;23;20034;-94
2023/01/09 09:25:07;;;;;;;6.45;0.80;;;;;;;-143.29;100.00;62188.47;6192849;23;20007;-94
2023/01/09 09:27:35;;;;;;;7.68;1.33;;;;;;;-143.29;100.00;62188.47;6193983;23;20006;-94
2023/01/09 09:30:01;;;;;;;6.03;1.30;;;;;;;-143.29;100.00;62188.47;6193886;23;20093;-94
2023/01/09 09:32:26;;;;;;;6.80;0.82;;;;;;;-143.29;100.00;62188.47;6193921;23;20042;-93
2023/01/09 09:34:52;;;;;;;14.15;1.17;;;;;;;-143.29;100.00;62188.47;6091665;23;20006;-94
2023/01/09 09:37:17;;;;;;;7.63;1.20;;;;;;;-143.29;100.00;62188.47;6193841;23;20425;-94
2023/01/09 09:39:43;;;;;;;6.82;0.95;;;;;;;-143.29;100.00;62188.47;6192860;23;20009;-94
2023/01/09 09:45:45;;;;;;;7.78;1.02;;;;;;;-143.29;100.00;62188.47;6092470;23;20026;-95
2023/01/09 09:48:37;;;;;;;4.43;1.10;;;;;;;-143.29;100.00;62188.47;6192814;23;20045;-94
2023/01/09 09:51:23;;;;;;;12.45;1.60;;;;;;;-143.29;100.00;62188.47;6173809;23;20014;-95
2023/01/09 09:54:00;;;;;;;6.47;1.05;;;;;;;-143.29;100.00;62188.47;6092088;23;20009;-95
2023/01/09 09:56:33;;;;;;;7.25;1.15;;;;;;;-143.29;100.00;62188.47;6193505;23;20032;-94
2023/01/09 09:59:05;;;;;;;8.93;1.50;;;;;;;-143.29;100.00;62188.47;6193428;23;20006;-93
2023/01/09 10:01:40;;;;;;;5.68;0.82;;;;;;;-143.29;100.00;62188.47;6193679;23;20057;-94
2023/01/09 10:04:14;;;;;;;4.60;1.30;;;;;;;-143.29;100.00;62188.47;6192509;23;20017;-95
2023/01/09 10:06:45;;;;;;;6.63;1.20;;;;;;;-143.29;100.00;62188.47;6193169;23;20014;-94
2023/01/09 10:09:35;;;;;;;10.45;1.75;;;;;;;-143.29;100.00;62188.47;6192827;23;20056;-93
2023/01/09 10:12:12;;;;;;;12.00;1.33;;;;;;;-143.29;100.00;62188.47;6193624;23;20078;-94
2023/01/09 10:14:38;;;;;;;12.38;2.17;;;;;;;-143.29;100.00;62188.47;6092029;23;20006;-94
2023/01/09 10:17:25;;;;;;;9.30;1.02;;;;;;;-143.29;100.00;62188.47;6192807;23;20064;-94
2023/01/09 10:20:18;;;;;;;9.10;1.40;;;;;;;-143.29;100.00;62188.47;6193253;23;20006;-94
2023/01/09 10:22:54;;;;;;;9.43;1.58;;;;;;;-143.29;100.00;62188.47;6192929;23;20010;-94
2023/01/09 10:25:44;;;;;;;3.95;1.25;;;;;;;-143.29;100.00;62188.47;6193106;23;20057;-93
2023/01/09 10:28:25;;;;;;;12.02;1.35;;;;;;;-143.29;100.00;62188.47;6193408;23;20062;-94
2023/01/09 10:30:54;;;;;;;12.05;1.63;;;;;;;-143.29;100.00;62188.47;6193329;23;20002;-94
2023/01/09 10:33:28;;;;;;;7.50;1.20;;;;;;;-143.29;100.00;62188.47;6193289;23;20444;-94
2023/01/09 10:36:21;;;;;;;11.63;2.35;;;;;;;-143.29;100.00;62188.47;6192790;23;20014;-94
2023/01/09 10:38:51;;;;;;;13.85;1.75;;;;;;;-143.29;100.00;62188.47;6192351;23;20056;-94
2023/01/09 10:41:30;;;;;;;10.57;1.52;;;;;;;-143.29;100.00;62188.47;6192942;23;20437;-94
2023/01/09 10:44:01;;;;;;;7.57;1.38;;;;;;;-143.29;100.00;62188.47;6193041;23;20045;-94
2023/01/09 10:46:52;;;;;;;13.65;1.73;;;;;;;-143.29;100.00;62188.47;6192762;23;20042;-94
2023/01/09 10:49:18;;;;;;;14.77;2.03;;;;;;;-143.29;100.00;62188.47;6193129;23;20011;-94
2023/01/09 10:51:50;;;;;;;10.45;1.75;;;;;;;-143.29;100.00;62188.47;6193159;23;20241;-94
2023/01/09 10:54:20;;;;;;;8.77;1.73;;;;;;;-143.29;100.00;62188.47;6192384;23;20011;-94
2023/01/09 10:56:55;;;;;;;19.63;2.00;;;;;;;-143.29;100.00;62188.47;6192691;23;20340;-94
2023/01/09 10:59:24;;;;;;;8.60;1.77;;;;;;;-143.29;100.00;62188.47;6192448;23;20407;-94
2023/01/09 11:01:50;;;;;;;20.73;2.42;;;;;;;-143.29;100.00;62188.47;6193593;23;20377;-92
2023/01/09 11:04:38;;;;;;;17.65;2.50;;;;;;;-143.29;100.00;62188.47;6193601;23;20006;-93
2023/01/09 11:07:14;;;;;;;16.13;1.80;;;;;;;-143.29;100.00;62188.47;6192961;23;20068;-94
2023/01/09 11:10:14;;;;;;;10.45;2.13;;;;;;;-143.29;100.00;62188.47;6193242;23;20007;-93
2023/01/09 11:12:40;;;;;;;12.07;1.85;;;;;;;-143.29;100.00;62188.47;6129656;23;20033;-94
2023/01/09 11:15:14;;;;;;;12.63;1.80;;;;;;;-143.29;100.00;62188.47;6192307;23;20007;-95
2023/01/09 11:17:41;;;;;;;7.75;1.55;;;;;;;-143.29;100.00;62188.47;6192770;23;20038;-95
2023/01/09 11:20:28;;;;;;;14.20;2.63;;;;;;;-143.29;100.00;62188.47;6194177;23;20031;-94
2023/01/09 11:22:55;;;;;;;12.40;1.85;;;;;;;-143.29;100.00;62188.47;6191555;23;20011;-94
2023/01/09 11:25:27;;;;;;;18.13;2.55;;;;;;;-143.29;100.00;62188.47;6193492;23;20332;-95
2023/01/09 11:28:01;;;;;;;12.98;2.35;;;;;;;-143.29;100.00;62188.47;6192918;23;20081;-95
2023/01/09 11:30:28;;;;;;;14.52;2.35;;;;;;;-143.29;100.00;62188.47;6192541;23;20007;-95
2023/01/09 11:32:58;;;;;;;13.95;2.17;;;;;;;-143.29;100.00;62188.47;6193567;23;20306;-94
2023/01/09 11:35:32;;;;;;;17.45;1.85;;;;;;;-143.29;100.00;62188.47;6192828;23;20421;-95
2023/01/09 11:38:17;;;;;;;10.38;2.15;;;;;;;-143.29;100.00;62188.47;6192205;23;20337;-94
2023/01/09 11:40:53;;;;;;;17.17;2.60;;;;;;;-143.29;100.00;62188.47;6193071;23;20068;-95
2023/01/09 11:43:41;;;;;;;15.07;3.20;;;;;;;-143.29;100.00;62188.47;6192912;23;20038;-94